createdAt,value
2018-09-27T00:00:54.652Z,14.03
2018-09-27T00:01:54.681Z,13.95
2018-09-27T00:02:54.915Z,13.92
2018-09-27T00:03:54.699Z,13.92
2018-09-27T00:04:54.710Z,13.89
2018-09-27T00:05:54.719Z,13.85
2018-09-27T00:06:54.733Z,13.82
2018-09-27T00:07:54.812Z,13.84
2018-09-27T00:08:54.762Z,13.73
2018-09-27T00:09:54.775Z,13.79
2018-09-27T00:10:54.807Z,13.78
2018-09-27T00:11:54.814Z,13.82
2018-09-27T00:12:54.812Z,13.75
2018-09-27T00:13:54.824Z,13.82
2018-09-27T00:14:54.837Z,13.78
2018-09-27T00:15:54.850Z,13.77
2018-09-27T00:16:54.867Z,13.77
2018-09-27T00:17:54.879Z,13.75
2018-09-27T00:18:54.893Z,13.67
2018-09-27T00:19:54.907Z,13.73
2018-09-27T00:20:54.918Z,13.67
2018-09-27T00:21:54.932Z,13.71
2018-09-27T00:22:54.979Z,13.71
2018-09-27T00:23:54.956Z,13.71
2018-09-27T00:24:54.970Z,13.71
2018-09-27T00:25:54.984Z,13.67
2018-09-27T00:26:54.997Z,13.70
2018-09-27T00:27:55.010Z,13.71
2018-09-27T00:28:55.027Z,13.71
2018-09-27T00:29:55.037Z,13.69
2018-09-27T00:30:55.106Z,13.75
2018-09-27T00:31:55.084Z,13.66
2018-09-27T00:32:55.112Z,13.71
2018-09-27T00:33:55.176Z,13.59
2018-09-27T00:34:55.145Z,13.62
2018-09-27T00:35:55.117Z,13.64
2018-09-27T00:36:55.135Z,13.52
2018-09-27T00:37:55.144Z,13.60
2018-09-27T00:38:55.155Z,13.60
2018-09-27T00:39:55.170Z,13.55
2018-09-27T00:40:55.183Z,13.60
2018-09-27T00:41:55.196Z,13.59
2018-09-27T00:42:55.208Z,13.59
2018-09-27T00:43:55.232Z,13.67
2018-09-27T00:44:55.234Z,13.52
2018-09-27T00:45:55.248Z,13.51
2018-09-27T00:46:55.262Z,13.48
2018-09-27T00:47:55.276Z,13.60
2018-09-27T00:48:55.289Z,13.45
2018-09-27T00:49:55.309Z,13.51
2018-09-27T00:52:55.372Z,13.49
2018-09-27T00:53:55.355Z,13.48
2018-09-27T00:54:55.366Z,13.49
2018-09-27T00:55:55.382Z,13.46
2018-09-27T00:56:55.424Z,13.52
2018-09-27T00:59:55.432Z,13.44
2018-09-27T01:00:55.499Z,13.45
2018-09-27T01:01:55.568Z,13.45
2018-09-27T01:03:55.491Z,13.38
2018-09-27T01:04:55.517Z,13.41
2018-09-27T01:05:55.513Z,13.36
2018-09-27T01:06:55.526Z,13.42
2018-09-27T01:07:55.541Z,13.42
2018-09-27T01:08:55.594Z,13.38
2018-09-27T01:09:55.584Z,13.39
2018-09-27T01:10:55.582Z,13.45
2018-09-27T01:11:55.588Z,13.38
2018-09-27T01:12:55.603Z,13.32
2018-09-27T01:13:55.640Z,13.41
2018-09-27T01:14:55.629Z,13.38
2018-09-27T01:15:55.674Z,13.33
2018-09-27T01:16:55.657Z,13.33
2018-09-27T01:17:55.756Z,13.33
2018-09-27T01:18:55.688Z,13.30
2018-09-27T01:19:55.724Z,13.28
2018-09-27T01:20:55.708Z,13.32
2018-09-27T01:21:55.721Z,13.28
2018-09-27T01:22:55.734Z,13.26
2018-09-27T01:23:55.748Z,13.23
2018-09-27T01:24:55.761Z,13.32
2018-09-27T01:25:55.775Z,13.30
2018-09-27T01:26:56.100Z,13.28
2018-09-27T01:27:56.527Z,13.17
2018-09-27T01:28:55.839Z,13.19
2018-09-27T01:29:55.841Z,13.20
2018-09-27T01:30:55.840Z,13.20
2018-09-27T01:31:55.856Z,13.23
2018-09-27T01:32:55.870Z,13.17
2018-09-27T01:33:56.087Z,13.22
2018-09-27T01:34:56.272Z,13.25
2018-09-27T01:35:55.914Z,13.23
2018-09-27T01:36:55.920Z,13.19
2018-09-27T01:37:56.278Z,13.17
2018-09-27T01:38:55.946Z,13.20
2018-09-27T01:40:56.366Z,13.19
2018-09-27T01:41:55.985Z,13.20
2018-09-27T01:42:56.852Z,13.22
2018-09-27T01:43:56.012Z,13.17
2018-09-27T01:44:56.039Z,13.25
2018-09-27T01:45:56.035Z,13.15
2018-09-27T01:46:56.110Z,13.22
2018-09-27T01:47:56.064Z,13.22
2018-09-27T01:48:56.073Z,13.23
2018-09-27T01:49:56.092Z,13.20
2018-09-27T01:50:56.134Z,13.19
2018-09-27T01:51:56.118Z,13.22
2018-09-27T01:52:56.128Z,13.26
2018-09-27T01:53:56.141Z,13.26
2018-09-27T01:54:56.156Z,13.22
2018-09-27T01:55:56.166Z,13.22
2018-09-27T01:57:57.134Z,13.32
2018-09-27T01:58:56.206Z,13.26
2018-09-27T01:59:56.218Z,13.30
2018-09-27T02:00:56.238Z,13.23
2018-09-27T02:01:56.246Z,13.26
2018-09-27T02:02:56.259Z,13.26
2018-09-27T02:03:56.270Z,13.33
2018-09-27T02:04:56.288Z,13.23
2018-09-27T02:05:56.298Z,13.25
2018-09-27T02:06:56.311Z,13.26
2018-09-27T02:07:56.743Z,13.30
2018-09-27T02:08:57.801Z,13.25
2018-09-27T02:10:58.188Z,13.22
2018-09-27T02:11:56.409Z,13.29
2018-09-27T02:12:56.390Z,13.29
2018-09-27T02:13:56.403Z,13.25
2018-09-27T02:14:56.416Z,13.26
2018-09-27T02:15:56.430Z,13.23
2018-09-27T02:16:56.440Z,13.23
2018-09-27T02:17:56.456Z,13.17
2018-09-27T02:18:56.478Z,13.23
2018-09-27T02:19:56.512Z,13.26
2018-09-27T02:20:56.497Z,13.30
2018-09-27T02:21:56.505Z,13.32
2018-09-27T02:22:57.173Z,13.30
2018-09-27T02:23:56.533Z,13.32
2018-09-27T02:24:56.550Z,13.30
2018-09-27T02:25:56.560Z,13.36
2018-09-27T02:26:56.573Z,13.36
2018-09-27T02:27:56.584Z,13.32
2018-09-27T02:28:58.242Z,13.42
2018-09-27T02:29:56.618Z,13.38
2018-09-27T02:30:56.626Z,13.41
2018-09-27T02:31:56.637Z,13.38
2018-09-27T02:32:56.662Z,13.36
2018-09-27T02:33:56.668Z,13.36
2018-09-27T02:34:56.702Z,13.39
2018-09-27T02:35:56.690Z,13.36
2018-09-27T02:36:56.701Z,13.42
2018-09-27T02:37:56.719Z,13.46
2018-09-27T02:38:56.731Z,13.44
2018-09-27T02:39:56.765Z,13.39
2018-09-27T02:41:56.807Z,13.45
2018-09-27T02:42:56.815Z,13.41
2018-09-27T02:43:56.795Z,13.44
2018-09-27T02:44:56.813Z,13.44
2018-09-27T02:45:56.821Z,13.51
2018-09-27T02:46:57.144Z,13.45
2018-09-27T02:47:56.849Z,13.52
2018-09-27T02:48:57.170Z,13.59
2018-09-27T02:49:56.872Z,13.64
2018-09-27T02:50:56.885Z,13.49
2018-09-27T02:51:56.916Z,13.60
2018-09-27T02:52:56.944Z,13.62
2018-09-27T02:53:56.925Z,13.62
2018-09-27T02:54:56.941Z,13.60
2018-09-27T02:55:56.952Z,13.66
2018-09-27T02:56:56.966Z,13.55
2018-09-27T02:57:56.978Z,13.59
2018-09-27T02:58:56.991Z,13.64
2018-09-27T02:59:57.981Z,13.69
2018-09-27T03:00:57.019Z,13.71
2018-09-27T03:01:57.035Z,13.79
2018-09-27T03:02:57.099Z,13.73
2018-09-27T03:03:57.059Z,13.69
2018-09-27T03:04:57.463Z,13.69
2018-09-27T03:05:57.086Z,13.73
2018-09-27T03:06:57.096Z,13.67
2018-09-27T03:07:57.113Z,13.70
2018-09-27T03:08:57.121Z,13.70
2018-09-27T03:09:57.136Z,13.70
2018-09-27T03:10:57.200Z,13.77
2018-09-27T03:11:57.165Z,13.78
2018-09-27T03:12:57.183Z,13.73
2018-09-27T03:13:57.294Z,13.81
2018-09-27T03:14:57.202Z,13.87
2018-09-27T03:15:57.214Z,13.73
2018-09-27T03:16:57.228Z,13.75
2018-09-27T03:17:57.243Z,13.84
2018-09-27T03:18:57.260Z,13.79
2018-09-27T03:19:57.583Z,13.84
2018-09-27T03:20:57.315Z,13.70
2018-09-27T03:21:57.296Z,13.87
2018-09-27T03:22:57.312Z,13.78
2018-09-27T03:23:57.353Z,13.85
2018-09-27T03:24:57.337Z,13.81
2018-09-27T03:25:57.368Z,13.81
2018-09-27T03:26:57.366Z,13.77
2018-09-27T03:27:57.375Z,13.84
2018-09-27T03:28:57.701Z,13.84
2018-09-27T03:29:57.409Z,13.87
2018-09-27T03:30:57.447Z,13.85
2018-09-27T03:31:57.429Z,13.91
2018-09-27T03:32:57.456Z,13.89
2018-09-27T03:33:57.457Z,13.89
2018-09-27T03:34:57.468Z,13.89
2018-09-27T03:35:57.485Z,13.84
2018-09-27T03:36:57.500Z,13.92
2018-09-27T03:37:57.516Z,13.95
2018-09-27T03:38:57.527Z,13.97
2018-09-27T03:39:57.601Z,13.97
2018-09-27T03:40:57.549Z,13.97
2018-09-27T03:41:57.561Z,13.97
2018-09-27T03:42:57.574Z,13.99
2018-09-27T03:43:57.613Z,13.95
2018-09-27T03:44:57.601Z,13.91
2018-09-27T03:45:57.620Z,14.00
2018-09-27T03:46:57.866Z,13.95
2018-09-27T03:47:57.643Z,13.99
2018-09-27T03:48:57.660Z,13.91
2018-09-27T03:49:57.668Z,13.97
2018-09-27T03:50:57.684Z,13.99
2018-09-27T03:51:57.694Z,13.92
2018-09-27T03:52:57.744Z,13.91
2018-09-27T03:53:57.721Z,13.87
2018-09-27T03:54:57.739Z,13.99
2018-09-27T03:55:57.749Z,13.92
2018-09-27T03:56:57.760Z,13.92
2018-09-27T03:57:57.773Z,13.95
2018-09-27T03:58:57.788Z,13.96
2018-09-27T03:59:57.802Z,14.00
2018-09-27T04:00:57.822Z,13.96
2018-09-27T04:01:57.829Z,13.95
2018-09-27T04:02:57.840Z,13.95
2018-09-27T04:03:57.859Z,13.92
2018-09-27T04:04:57.871Z,13.95
2018-09-27T04:05:57.884Z,13.97
2018-09-27T04:06:57.904Z,13.99
2018-09-27T04:07:57.907Z,13.97
2018-09-27T04:08:57.923Z,14.02
2018-09-27T04:09:57.934Z,14.00
2018-09-27T04:10:57.948Z,14.06
2018-09-27T04:11:57.964Z,14.02
2018-09-27T04:12:57.977Z,14.04
2018-09-27T04:13:58.001Z,14.04
2018-09-27T04:14:58.002Z,14.07
2018-09-27T04:15:58.135Z,14.12
2018-09-27T04:16:58.029Z,14.10
2018-09-27T04:17:58.040Z,14.14
2018-09-27T04:18:58.075Z,14.09
2018-09-27T04:19:58.089Z,14.17
2018-09-27T04:20:58.082Z,14.03
2018-09-27T04:21:58.104Z,14.04
2018-09-27T04:22:58.117Z,14.04
2018-09-27T04:23:58.134Z,14.03
2018-09-27T04:24:58.472Z,14.06
2018-09-27T04:25:58.148Z,14.03
2018-09-27T04:26:58.153Z,14.06
2018-09-27T04:27:58.166Z,14.00
2018-09-27T04:28:58.180Z,14.07
2018-09-27T04:29:58.194Z,14.12
2018-09-27T04:30:58.212Z,14.03
2018-09-27T04:31:58.425Z,14.04
2018-09-27T04:32:58.237Z,14.06
2018-09-27T04:33:58.248Z,14.04
2018-09-27T04:34:58.280Z,14.09
2018-09-27T04:35:58.275Z,14.02
2018-09-27T04:36:58.288Z,13.99
2018-09-27T04:37:58.508Z,13.97
2018-09-27T04:38:58.346Z,14.00
2018-09-27T04:39:58.331Z,14.02
2018-09-27T04:40:58.425Z,13.96
2018-09-27T04:41:58.371Z,14.02
2018-09-27T04:42:58.367Z,14.04
2018-09-27T04:43:58.409Z,14.00
2018-09-27T04:44:58.401Z,13.99
2018-09-27T04:45:58.864Z,14.02
2018-09-27T04:46:58.421Z,14.00
2018-09-27T04:47:58.433Z,14.00
2018-09-27T04:48:58.475Z,14.04
2018-09-27T04:49:58.461Z,13.99
2018-09-27T04:50:58.683Z,14.00
2018-09-27T04:51:58.686Z,13.96
2018-09-27T04:52:58.600Z,14.02
2018-09-27T04:53:58.518Z,14.03
2018-09-27T04:54:58.538Z,14.03
2018-09-27T04:55:58.543Z,13.99
2018-09-27T04:56:58.555Z,13.99
2018-09-27T04:57:58.570Z,13.95
2018-09-27T04:58:58.581Z,14.09
2018-09-27T04:59:58.619Z,14.00
2018-09-27T05:00:58.684Z,13.99
2018-09-27T05:01:58.825Z,14.06
2018-09-27T05:02:58.637Z,13.99
2018-09-27T05:03:58.656Z,13.92
2018-09-27T05:04:58.691Z,14.02
2018-09-27T05:05:58.679Z,14.02
2018-09-27T05:06:58.689Z,13.95
2018-09-27T05:07:58.709Z,14.04
2018-09-27T05:08:58.716Z,13.95
2018-09-27T05:09:58.731Z,13.97
2018-09-27T05:10:58.743Z,14.04
2018-09-27T05:11:58.755Z,13.99
2018-09-27T05:12:58.784Z,13.96
2018-09-27T05:13:58.786Z,13.97
2018-09-27T05:14:58.797Z,14.09
2018-09-27T05:15:58.865Z,14.04
2018-09-27T05:16:58.834Z,13.99
2018-09-27T05:17:58.850Z,14.02
2018-09-27T05:18:58.849Z,13.97
2018-09-27T05:19:58.882Z,13.99
2018-09-27T05:20:58.964Z,13.96
2018-09-27T05:21:58.893Z,13.96
2018-09-27T05:22:58.903Z,14.00
2018-09-27T05:23:59.072Z,13.99
2018-09-27T05:24:58.953Z,14.00
2018-09-27T05:25:58.947Z,14.00
2018-09-27T05:26:58.969Z,13.96
2018-09-27T05:27:58.968Z,13.96
2018-09-27T05:28:58.983Z,14.02
2018-09-27T05:29:59.200Z,14.04
2018-09-27T05:30:59.504Z,14.12
2018-09-27T05:31:59.028Z,14.10
2018-09-27T05:32:59.163Z,13.99
2018-09-27T05:33:59.234Z,14.07
2018-09-27T05:34:59.212Z,13.97
2018-09-27T05:35:59.574Z,14.10
2018-09-27T05:36:59.091Z,14.02
2018-09-27T05:38:00.025Z,13.92
2018-09-27T05:38:59.262Z,14.06
2018-09-27T05:39:59.974Z,14.03
2018-09-27T05:41:00.046Z,14.00
2018-09-27T05:41:59.770Z,14.02
2018-09-27T05:42:59.651Z,14.02
2018-09-27T05:43:59.198Z,14.02
2018-09-27T05:44:59.196Z,14.03
2018-09-27T05:45:59.210Z,14.03
2018-09-27T05:46:59.222Z,14.06
2018-09-27T05:47:59.235Z,13.95
2018-09-27T05:48:59.254Z,13.99
2018-09-27T05:49:59.334Z,13.96
2018-09-27T05:50:59.276Z,14.02
2018-09-27T05:51:59.302Z,13.96
2018-09-27T05:53:00.074Z,13.97
2018-09-27T05:53:59.961Z,13.99
2018-09-27T05:54:59.970Z,13.99
2018-09-27T05:55:59.565Z,14.00
2018-09-27T05:56:59.457Z,13.99
2018-09-27T05:57:59.471Z,13.97
2018-09-27T05:58:59.439Z,14.02
2018-09-27T05:59:59.414Z,13.99
2018-09-27T06:01:00.196Z,13.92
2018-09-27T06:01:59.475Z,14.03
2018-09-27T06:02:59.451Z,14.06
2018-09-27T06:03:59.453Z,14.04
2018-09-27T06:04:59.462Z,14.07
2018-09-27T06:05:59.475Z,14.03
2018-09-27T06:06:59.495Z,14.07
2018-09-27T06:07:59.657Z,14.03
2018-09-27T06:08:59.518Z,14.09
2018-09-27T06:10:00.913Z,14.03
2018-09-27T06:10:59.928Z,14.07
2018-09-27T06:11:59.882Z,14.12
2018-09-27T06:12:59.961Z,14.12
2018-09-27T06:14:00.142Z,14.07
2018-09-27T06:14:59.949Z,14.15
2018-09-27T06:15:59.634Z,14.15
2018-09-27T06:16:59.697Z,14.15
2018-09-27T06:17:59.672Z,14.12
2018-09-27T06:18:59.649Z,14.15
2018-09-27T06:19:59.663Z,14.18
2018-09-27T06:22:59.724Z,14.14
2018-09-27T06:23:59.888Z,14.15
2018-09-27T06:24:59.859Z,14.25
2018-09-27T06:25:59.965Z,14.17
2018-09-27T06:26:59.758Z,14.22
2018-09-27T06:28:59.783Z,14.25
2018-09-27T06:30:00.257Z,14.21
2018-09-27T06:31:00.125Z,14.29
2018-09-27T06:31:59.879Z,14.24
2018-09-27T06:32:59.846Z,14.25
2018-09-27T06:33:59.982Z,14.18
2018-09-27T06:35:00.042Z,14.18
2018-09-27T06:36:00.446Z,14.25
2018-09-27T06:37:00.534Z,14.20
2018-09-27T06:38:00.127Z,14.22
2018-09-27T06:39:00.513Z,14.22
2018-09-27T06:40:59.987Z,14.24
2018-09-27T06:42:00.529Z,14.36
2018-09-27T06:42:59.996Z,14.33
2018-09-27T06:44:00.038Z,14.35
2018-09-27T06:45:00.839Z,14.36
2018-09-27T06:46:00.055Z,14.35
2018-09-27T06:47:00.887Z,14.37
2018-09-27T06:48:00.140Z,14.35
2018-09-27T06:49:00.056Z,14.36
2018-09-27T06:50:00.085Z,14.39
2018-09-27T06:51:00.135Z,14.35
2018-09-27T06:52:01.184Z,14.37
2018-09-27T06:53:00.656Z,14.58
2018-09-27T06:54:00.137Z,14.54
2018-09-27T06:55:00.269Z,14.51
2018-09-27T06:56:00.430Z,14.52
2018-09-27T06:57:00.165Z,14.40
2018-09-27T06:58:00.426Z,14.36
2018-09-27T06:59:00.288Z,14.35
2018-09-27T07:00:00.551Z,14.42
2018-09-27T07:01:00.600Z,14.37
2018-09-27T07:02:00.632Z,14.37
2018-09-27T07:03:00.248Z,14.36
2018-09-27T07:04:00.706Z,14.32
2018-09-27T07:05:00.326Z,14.36
2018-09-27T07:06:00.283Z,14.37
2018-09-27T07:07:00.298Z,14.28
2018-09-27T07:08:00.310Z,14.33
2018-09-27T07:09:00.324Z,14.52
2018-09-27T07:10:00.450Z,14.52
2018-09-27T07:11:00.354Z,14.54
2018-09-27T07:12:00.478Z,14.62
2018-09-27T07:13:00.378Z,14.55
2018-09-27T07:14:00.409Z,14.61
2018-09-27T07:15:00.404Z,14.62
2018-09-27T07:16:00.421Z,14.68
2018-09-27T07:17:00.430Z,14.64
2018-09-27T07:18:00.454Z,14.61
2018-09-27T07:19:00.465Z,14.81
2018-09-27T07:20:00.478Z,14.73
2018-09-27T07:21:00.486Z,14.69
2018-09-27T07:22:00.500Z,14.78
2018-09-27T07:23:00.527Z,14.89
2018-09-27T07:24:00.529Z,14.83
2018-09-27T07:25:00.557Z,14.83
2018-09-27T07:26:00.591Z,14.86
2018-09-27T07:27:00.630Z,14.91
2018-09-27T07:28:00.593Z,14.92
2018-09-27T07:29:00.598Z,14.92
2018-09-27T07:30:00.607Z,14.98
2018-09-27T07:31:00.770Z,15.01
2018-09-27T07:32:00.665Z,15.01
2018-09-27T07:33:00.647Z,15.02
2018-09-27T07:34:00.693Z,15.07
2018-09-27T07:35:00.676Z,15.07
2018-09-27T07:36:01.009Z,15.07
2018-09-27T07:37:00.704Z,15.10
2018-09-27T07:38:00.739Z,15.16
2018-09-27T07:39:00.728Z,15.16
2018-09-27T07:40:00.777Z,15.21
2018-09-27T07:41:00.761Z,15.13
2018-09-27T07:42:00.773Z,15.14
2018-09-27T07:43:00.795Z,15.17
2018-09-27T07:44:00.796Z,15.19
2018-09-27T07:45:00.816Z,15.25
2018-09-27T07:46:00.828Z,15.28
2018-09-27T07:47:00.841Z,15.34
2018-09-27T07:48:00.856Z,15.29
2018-09-27T07:49:00.868Z,15.35
2018-09-27T07:50:00.902Z,15.39
2018-09-27T07:51:00.898Z,15.47
2018-09-27T07:52:01.177Z,15.43
2018-09-27T07:53:00.929Z,15.47
2018-09-27T07:54:00.934Z,15.56
2018-09-27T07:55:00.955Z,15.65
2018-09-27T07:56:00.961Z,15.64
2018-09-27T07:57:01.175Z,15.64
2018-09-27T07:58:00.998Z,15.57
2018-09-27T07:59:01.010Z,15.60
2018-09-27T08:00:01.052Z,15.57
2018-09-27T08:01:01.035Z,15.57
2018-09-27T08:02:01.821Z,15.62
2018-09-27T08:03:01.337Z,15.72
2018-09-27T08:04:01.151Z,15.72
2018-09-27T08:05:01.614Z,15.80
2018-09-27T08:06:01.107Z,15.72
2018-09-27T08:07:01.130Z,15.82
2018-09-27T08:08:01.134Z,15.75
2018-09-27T08:09:01.144Z,15.83
2018-09-27T08:10:01.157Z,15.87
2018-09-27T08:11:01.246Z,15.89
2018-09-27T08:12:01.382Z,15.87
2018-09-27T08:13:01.221Z,15.96
2018-09-27T08:14:02.683Z,15.96
2018-09-27T08:15:01.244Z,16.02
2018-09-27T08:16:01.356Z,15.96
2018-09-27T08:17:01.354Z,16.07
2018-09-27T08:18:01.294Z,16.15
2018-09-27T08:19:02.275Z,16.09
2018-09-27T08:20:01.293Z,16.20
2018-09-27T08:21:01.520Z,16.12
2018-09-27T08:22:01.325Z,16.24
2018-09-27T08:23:01.444Z,16.17
2018-09-27T08:24:01.384Z,16.21
2018-09-27T08:25:01.374Z,16.17
2018-09-27T08:26:03.154Z,16.30
2018-09-27T08:27:01.976Z,16.34
2018-09-27T08:28:01.407Z,16.48
2018-09-27T08:29:01.427Z,16.41
2018-09-27T08:30:01.435Z,16.46
2018-09-27T08:31:01.481Z,16.48
2018-09-27T08:33:01.925Z,16.46
2018-09-27T08:34:01.514Z,16.52
2018-09-27T08:35:01.926Z,16.52
2018-09-27T08:36:01.528Z,16.63
2018-09-27T08:37:01.535Z,16.60
2018-09-27T08:38:01.624Z,16.56
2018-09-27T08:39:01.562Z,16.60
2018-09-27T08:40:01.575Z,16.64
2018-09-27T08:41:01.589Z,16.67
2018-09-27T08:42:01.603Z,16.73
2018-09-27T08:43:01.636Z,16.75
2018-09-27T08:44:01.651Z,16.78
2018-09-27T08:45:02.067Z,16.81
2018-09-27T08:46:01.658Z,16.81
2018-09-27T08:47:01.675Z,16.81
2018-09-27T08:48:01.687Z,16.82
2018-09-27T08:49:01.725Z,16.83
2018-09-27T08:50:02.419Z,16.76
2018-09-27T08:51:01.961Z,16.82
2018-09-27T08:52:01.980Z,16.79
2018-09-27T08:53:02.000Z,16.81
2018-09-27T08:54:01.787Z,16.94
2018-09-27T08:55:01.893Z,16.94
2018-09-27T08:56:01.898Z,16.94
2018-09-27T08:57:01.810Z,17.01
2018-09-27T08:58:01.831Z,17.04
2018-09-27T08:59:01.839Z,17.04
2018-09-27T09:00:01.867Z,17.03
2018-09-27T09:01:01.975Z,17.08
2018-09-27T09:02:01.886Z,17.12
2018-09-27T09:03:02.867Z,17.15
2018-09-27T09:04:02.017Z,17.25
2018-09-27T09:05:01.930Z,17.21
2018-09-27T09:06:01.940Z,17.34
2018-09-27T09:07:01.969Z,17.34
2018-09-27T09:08:01.964Z,17.48
2018-09-27T09:09:01.997Z,17.56
2018-09-27T09:10:01.992Z,17.54
2018-09-27T09:11:02.006Z,17.63
2018-09-27T09:12:02.109Z,17.68
2018-09-27T09:13:02.040Z,17.74
2018-09-27T09:14:02.049Z,17.82
2018-09-27T09:15:02.064Z,17.87
2018-09-27T09:16:02.128Z,17.86
2018-09-27T09:17:02.095Z,17.86
2018-09-27T09:18:02.136Z,17.90
2018-09-27T09:19:02.121Z,17.96
2018-09-27T09:20:02.174Z,18.05
2018-09-27T09:21:02.183Z,18.12
2018-09-27T09:22:02.165Z,18.15
2018-09-27T09:23:02.177Z,18.14
2018-09-27T09:24:02.192Z,18.15
2018-09-27T09:25:02.244Z,18.21
2018-09-27T09:26:02.252Z,18.21
2018-09-27T09:27:02.233Z,18.21
2018-09-27T09:28:02.475Z,18.27
2018-09-27T09:29:02.267Z,18.44
2018-09-27T09:30:02.340Z,18.45
2018-09-27T09:31:02.301Z,18.51
2018-09-27T09:32:02.305Z,18.55
2018-09-27T09:33:02.322Z,18.58
2018-09-27T09:34:02.384Z,18.60
2018-09-27T09:35:02.349Z,18.63
2018-09-27T09:36:02.458Z,18.67
2018-09-27T09:37:02.441Z,18.70
2018-09-27T09:38:02.451Z,18.60
2018-09-27T09:39:02.428Z,18.67
2018-09-27T09:40:02.425Z,18.63
2018-09-27T09:41:02.442Z,18.69
2018-09-27T09:42:02.479Z,18.63
2018-09-27T09:43:02.490Z,18.73
2018-09-27T09:44:02.548Z,18.80
2018-09-27T09:45:02.494Z,18.82
2018-09-27T09:46:02.537Z,18.82
2018-09-27T09:47:02.603Z,18.87
2018-09-27T09:48:02.536Z,18.87
2018-09-27T09:49:02.591Z,18.88
2018-09-27T09:50:04.487Z,18.95
2018-09-27T09:51:02.855Z,19.02
2018-09-27T09:52:02.597Z,19.13
2018-09-27T09:53:02.917Z,19.13
2018-09-27T09:54:02.620Z,19.18
2018-09-27T09:55:02.650Z,19.21
2018-09-27T09:56:02.662Z,19.14
2018-09-27T09:57:02.672Z,19.19
2018-09-27T09:58:02.683Z,19.26
2018-09-27T09:59:02.693Z,19.29
2018-09-27T10:00:02.781Z,19.28
2018-09-27T10:01:02.726Z,19.31
2018-09-27T10:02:02.752Z,19.44
2018-09-27T10:03:02.757Z,19.37
2018-09-27T10:04:02.767Z,19.44
2018-09-27T10:05:02.783Z,19.37
2018-09-27T10:06:02.811Z,19.39
2018-09-27T10:07:02.809Z,19.43
2018-09-27T10:08:02.824Z,19.43
2018-09-27T10:09:02.882Z,19.31
2018-09-27T10:10:02.856Z,19.37
2018-09-27T10:11:02.875Z,19.36
2018-09-27T10:12:02.933Z,19.37
2018-09-27T10:13:03.223Z,19.31
2018-09-27T10:14:02.940Z,19.39
2018-09-27T10:15:02.942Z,19.40
2018-09-27T10:16:03.010Z,19.43
2018-09-27T10:17:02.955Z,19.41
2018-09-27T10:18:03.001Z,19.51
2018-09-27T10:19:03.090Z,19.41
2018-09-27T10:20:02.999Z,19.41
2018-09-27T10:21:03.015Z,19.48
2018-09-27T10:22:03.056Z,19.56
2018-09-27T10:23:03.048Z,19.56
2018-09-27T10:24:03.060Z,19.58
2018-09-27T10:25:03.088Z,19.76
2018-09-27T10:26:03.089Z,19.78
2018-09-27T10:27:03.103Z,19.81
2018-09-27T10:28:03.135Z,19.81
2018-09-27T10:29:03.151Z,19.76
2018-09-27T10:30:03.157Z,19.76
2018-09-27T10:31:03.161Z,19.86
2018-09-27T10:32:03.182Z,19.91
2018-09-27T10:33:03.209Z,19.88
2018-09-27T10:34:03.282Z,19.91
2018-09-27T10:35:03.224Z,19.98
2018-09-27T10:36:03.547Z,19.91
2018-09-27T10:37:03.249Z,19.99
2018-09-27T10:38:03.270Z,19.95
2018-09-27T10:39:03.285Z,19.96
2018-09-27T10:40:03.298Z,20.03
2018-09-27T10:41:03.316Z,19.98
2018-09-27T10:42:03.331Z,20.08
2018-09-27T10:43:03.512Z,20.17
2018-09-27T10:44:03.369Z,20.13
2018-09-27T10:45:03.384Z,20.13
2018-09-27T10:46:03.389Z,20.18
2018-09-27T10:47:03.395Z,20.14
2018-09-27T10:48:03.429Z,20.21
2018-09-27T10:49:03.433Z,20.13
2018-09-27T10:50:03.438Z,20.14
2018-09-27T10:51:03.470Z,20.17
2018-09-27T10:52:03.468Z,20.16
2018-09-27T10:53:03.799Z,20.23
2018-09-27T10:54:03.499Z,20.16
2018-09-27T10:55:03.516Z,20.28
2018-09-27T10:56:03.528Z,20.33
2018-09-27T10:57:03.572Z,20.31
2018-09-27T10:58:03.561Z,20.32
2018-09-27T10:59:03.576Z,20.33
2018-09-27T11:00:03.590Z,20.33
2018-09-27T11:01:03.669Z,20.43
2018-09-27T11:02:03.615Z,20.42
2018-09-27T11:03:03.628Z,20.39
2018-09-27T11:04:03.698Z,20.35
2018-09-27T11:05:03.662Z,20.39
2018-09-27T11:06:03.676Z,20.48
2018-09-27T11:07:03.687Z,20.48
2018-09-27T11:08:03.703Z,20.48
2018-09-27T11:09:03.721Z,20.54
2018-09-27T11:10:03.735Z,20.66
2018-09-27T11:11:03.777Z,20.76
2018-09-27T11:12:03.765Z,20.73
2018-09-27T11:13:03.785Z,20.94
2018-09-27T11:14:03.907Z,20.97
2018-09-27T11:15:03.814Z,20.92
2018-09-27T11:16:03.859Z,21.01
2018-09-27T11:17:04.334Z,21.01
2018-09-27T11:18:03.857Z,21.01
2018-09-27T11:19:03.878Z,21.13
2018-09-27T11:20:04.226Z,21.04
2018-09-27T11:21:03.899Z,21.03
2018-09-27T11:22:03.946Z,20.98
2018-09-27T11:23:04.121Z,21.07
2018-09-27T11:24:04.042Z,21.09
2018-09-27T11:25:04.135Z,21.17
2018-09-27T11:26:03.970Z,21.19
2018-09-27T11:27:04.601Z,21.19
2018-09-27T11:28:04.061Z,21.16
2018-09-27T11:29:04.692Z,21.24
2018-09-27T11:30:04.033Z,21.35
2018-09-27T11:31:04.140Z,21.25
2018-09-27T11:33:04.121Z,21.29
2018-09-27T11:34:04.091Z,21.32
2018-09-27T11:35:04.130Z,21.25
2018-09-27T11:36:04.156Z,21.24
2018-09-27T11:37:04.137Z,21.22
2018-09-27T11:38:04.156Z,21.10
2018-09-27T11:39:05.008Z,21.07
2018-09-27T11:40:04.186Z,21.10
2018-09-27T11:41:04.234Z,21.07
2018-09-27T11:42:04.340Z,21.01
2018-09-27T11:43:04.230Z,21.03
2018-09-27T11:44:04.316Z,21.07
2018-09-27T11:45:04.264Z,21.06
2018-09-27T11:46:04.271Z,21.24
2018-09-27T11:47:04.287Z,21.40
2018-09-27T11:48:04.353Z,21.50
2018-09-27T11:49:04.545Z,21.62
2018-09-27T11:50:04.443Z,21.53
2018-09-27T11:51:04.351Z,21.58
2018-09-27T11:52:04.397Z,21.58
2018-09-27T11:54:04.390Z,21.67
2018-09-27T11:55:04.445Z,21.64
2018-09-27T11:56:04.474Z,21.53
2018-09-27T11:57:04.446Z,21.50
2018-09-27T11:58:04.715Z,21.43
2018-09-27T11:59:04.521Z,21.38
2018-09-27T12:00:04.492Z,21.43
2018-09-27T12:01:05.034Z,21.44
2018-09-27T12:02:04.515Z,21.42
2018-09-27T12:03:04.525Z,21.38
2018-09-27T12:04:04.537Z,21.52
2018-09-27T12:05:04.558Z,21.69
2018-09-27T12:06:04.571Z,21.69
2018-09-27T12:07:04.588Z,21.74
2018-09-27T12:08:04.623Z,21.82
2018-09-27T12:09:04.611Z,22.05
2018-09-27T12:10:04.652Z,22.12
2018-09-27T12:11:04.670Z,22.12
2018-09-27T12:12:04.723Z,22.20
2018-09-27T12:13:04.681Z,22.18
2018-09-27T12:14:04.720Z,22.02
2018-09-27T12:15:04.703Z,21.96
2018-09-27T12:16:04.763Z,21.86
2018-09-27T12:17:04.735Z,21.94
2018-09-27T12:18:04.799Z,21.86
2018-09-27T12:19:04.779Z,21.83
2018-09-27T12:20:04.818Z,21.90
2018-09-27T12:21:04.795Z,21.79
2018-09-27T12:22:04.808Z,21.84
2018-09-27T12:23:04.908Z,21.94
2018-09-27T12:24:04.838Z,21.91
2018-09-27T12:25:04.934Z,22.02
2018-09-27T12:26:05.005Z,22.12
2018-09-27T12:27:04.901Z,22.18
2018-09-27T12:28:04.941Z,22.17
2018-09-27T12:29:04.913Z,22.14
2018-09-27T12:30:04.959Z,22.12
2018-09-27T12:31:05.053Z,22.14
2018-09-27T12:32:05.012Z,22.05
2018-09-27T12:33:04.977Z,22.07
2018-09-27T12:34:05.057Z,21.98
2018-09-27T12:35:05.002Z,22.02
2018-09-27T12:36:05.020Z,22.05
2018-09-27T12:37:05.052Z,22.12
2018-09-27T12:38:05.051Z,22.21
2018-09-27T12:39:05.062Z,22.22
2018-09-27T12:40:05.088Z,22.30
2018-09-27T12:41:05.101Z,22.46
2018-09-27T12:42:05.293Z,22.55
2018-09-27T12:43:05.138Z,22.51
2018-09-27T12:44:05.141Z,22.75
2018-09-27T12:45:05.215Z,22.88
2018-09-27T12:46:05.243Z,23.09
2018-09-27T12:47:05.191Z,23.13
2018-09-27T12:48:05.303Z,23.28
2018-09-27T12:49:05.214Z,23.27
2018-09-27T12:50:05.230Z,23.40
2018-09-27T12:51:09.451Z,23.47
2018-09-27T12:52:06.768Z,23.43
2018-09-27T12:53:06.620Z,23.40
2018-09-27T12:54:05.315Z,23.53
2018-09-27T12:55:07.068Z,23.57
2018-09-27T12:56:07.732Z,23.50
2018-09-27T12:57:07.904Z,23.46
2018-09-27T12:59:07.444Z,23.22
2018-09-27T13:00:07.032Z,23.07
2018-09-27T13:01:06.247Z,22.90
2018-09-27T13:02:05.654Z,22.80
2018-09-27T13:03:05.420Z,22.67
2018-09-27T13:04:05.490Z,22.73
2018-09-27T13:05:05.656Z,22.76
2018-09-27T13:06:05.482Z,22.85
2018-09-27T13:07:05.531Z,23.12
2018-09-27T13:08:05.959Z,23.27
2018-09-27T13:09:05.948Z,23.33
2018-09-27T13:10:05.700Z,23.23